sensor_id;sensor_type;location;lat;lon;timestamp;temperature;humidity
72484;DHT22;74199;52.014;5.430;2024-03-07T00:00:25;20.20;42.60
72484;DHT22;74199;52.014;5.430;2024-03-07T00:02:53;20.30;42.60
72484;DHT22;74199;52.014;5.430;2024-03-07T00:05:21;20.20;42.50
72484;DHT22;74199;52.014;5.430;2024-03-07T00:07:53;20.30;42.50
72484;DHT22;74199;52.014;5.430;2024-03-07T00:10:20;20.30;42.40
72484;DHT22;74199;52.014;5.430;2024-03-07T00:12:48;20.30;42.40
72484;DHT22;74199;52.014;5.430;2024-03-07T00:15:15;20.30;42.40
72484;DHT22;74199;52.014;5.430;2024-03-07T00:17:42;20.30;42.40
72484;DHT22;74199;52.014;5.430;2024-03-07T00:20:10;20.30;42.30
72484;DHT22;74199;52.014;5.430;2024-03-07T00:22:46;20.30;42.30
72484;DHT22;74199;52.014;5.430;2024-03-07T00:25:13;20.30;42.20
72484;DHT22;74199;52.014;5.430;2024-03-07T00:27:41;20.30;42.30
72484;DHT22;74199;52.014;5.430;2024-03-07T00:30:12;20.30;42.30
72484;DHT22;74199;52.014;5.430;2024-03-07T00:32:46;20.30;42.20
72484;DHT22;74199;52.014;5.430;2024-03-07T00:35:14;20.30;42.20
72484;DHT22;74199;52.014;5.430;2024-03-07T00:37:42;20.30;42.20
72484;DHT22;74199;52.014;5.430;2024-03-07T00:40:10;20.40;42.00
72484;DHT22;74199;52.014;5.430;2024-03-07T00:42:37;20.30;42.10
72484;DHT22;74199;52.014;5.430;2024-03-07T00:45:05;20.40;42.00
72484;DHT22;74199;52.014;5.430;2024-03-07T00:47:32;20.40;42.00
72484;DHT22;74199;52.014;5.430;2024-03-07T00:50:00;20.40;42.00
72484;DHT22;74199;52.014;5.430;2024-03-07T00:52:30;20.40;41.90
72484;DHT22;74199;52.014;5.430;2024-03-07T00:54:58;20.40;41.80
72484;DHT22;74199;52.014;5.430;2024-03-07T00:57:25;20.40;41.80
72484;DHT22;74199;52.014;5.430;2024-03-07T00:59:52;20.40;41.80
72484;DHT22;74199;52.014;5.430;2024-03-07T01:02:19;20.40;41.80
72484;DHT22;74199;52.014;5.430;2024-03-07T01:04:46;20.40;41.70
72484;DHT22;74199;52.014;5.430;2024-03-07T01:07:14;20.40;41.70
72484;DHT22;74199;52.014;5.430;2024-03-07T01:09:40;20.40;41.70
72484;DHT22;74199;52.014;5.430;2024-03-07T01:12:07;20.50;41.70
72484;DHT22;74199;52.014;5.430;2024-03-07T01:14:37;20.50;41.70
72484;DHT22;74199;52.014;5.430;2024-03-07T01:17:04;20.50;41.60
72484;DHT22;74199;52.014;5.430;2024-03-07T01:19:34;20.50;41.60
72484;DHT22;74199;52.014;5.430;2024-03-07T01:22:01;20.50;41.60
72484;DHT22;74199;52.014;5.430;2024-03-07T01:24:28;20.50;41.60
72484;DHT22;74199;52.014;5.430;2024-03-07T01:26:56;20.50;41.50
72484;DHT22;74199;52.014;5.430;2024-03-07T01:29:24;20.50;41.50
72484;DHT22;74199;52.014;5.430;2024-03-07T01:31:51;20.50;41.40
72484;DHT22;74199;52.014;5.430;2024-03-07T01:34:18;20.50;41.40
72484;DHT22;74199;52.014;5.430;2024-03-07T01:36:45;20.60;41.40
72484;DHT22;74199;52.014;5.430;2024-03-07T01:39:12;20.60;41.40
72484;DHT22;74199;52.014;5.430;2024-03-07T01:41:39;20.50;41.30
72484;DHT22;74199;52.014;5.430;2024-03-07T01:44:07;20.50;41.30
72484;DHT22;74199;52.014;5.430;2024-03-07T01:46:34;20.60;41.30
72484;DHT22;74199;52.014;5.430;2024-03-07T01:49:01;20.60;41.20
72484;DHT22;74199;52.014;5.430;2024-03-07T01:51:28;20.60;41.20
72484;DHT22;74199;52.014;5.430;2024-03-07T01:53:55;20.60;41.10
72484;DHT22;74199;52.014;5.430;2024-03-07T01:56:23;20.60;41.10
72484;DHT22;74199;52.014;5.430;2024-03-07T01:58:52;20.60;41.20
72484;DHT22;74199;52.014;5.430;2024-03-07T02:01:20;20.60;41.10
72484;DHT22;74199;52.014;5.430;2024-03-07T02:03:47;20.60;41.10
72484;DHT22;74199;52.014;5.430;2024-03-07T02:06:14;20.60;41.10
72484;DHT22;74199;52.014;5.430;2024-03-07T02:08:41;20.60;41.00
72484;DHT22;74199;52.014;5.430;2024-03-07T02:11:08;20.60;41.10
72484;DHT22;74199;52.014;5.430;2024-03-07T02:13:36;20.60;41.00
72484;DHT22;74199;52.014;5.430;2024-03-07T02:16:03;20.60;41.00
72484;DHT22;74199;52.014;5.430;2024-03-07T02:18:31;20.70;41.00
72484;DHT22;74199;52.014;5.430;2024-03-07T02:20:58;20.70;41.00
72484;DHT22;74199;52.014;5.430;2024-03-07T02:23:25;20.70;40.90
72484;DHT22;74199;52.014;5.430;2024-03-07T02:25:53;20.70;40.90
72484;DHT22;74199;52.014;5.430;2024-03-07T02:28:20;20.70;40.90
72484;DHT22;74199;52.014;5.430;2024-03-07T02:30:47;20.70;40.90
72484;DHT22;74199;52.014;5.430;2024-03-07T02:33:14;20.70;40.90
72484;DHT22;74199;52.014;5.430;2024-03-07T02:35:41;20.70;40.90
72484;DHT22;74199;52.014;5.430;2024-03-07T02:38:09;20.70;40.90
72484;DHT22;74199;52.014;5.430;2024-03-07T02:40:36;20.70;40.80
72484;DHT22;74199;52.014;5.430;2024-03-07T02:43:03;20.70;40.80
72484;DHT22;74199;52.014;5.430;2024-03-07T02:45:32;20.80;40.70
72484;DHT22;74199;52.014;5.430;2024-03-07T02:47:58;20.70;40.70
72484;DHT22;74199;52.014;5.430;2024-03-07T02:50:26;20.70;40.70
72484;DHT22;74199;52.014;5.430;2024-03-07T02:52:53;20.70;40.60
72484;DHT22;74199;52.014;5.430;2024-03-07T02:55:20;20.80;40.60
72484;DHT22;74199;52.014;5.430;2024-03-07T02:57:47;20.80;40.60
72484;DHT22;74199;52.014;5.430;2024-03-07T03:00:15;20.80;40.60
72484;DHT22;74199;52.014;5.430;2024-03-07T03:02:53;20.80;40.50
72484;DHT22;74199;52.014;5.430;2024-03-07T03:05:21;20.70;40.50
72484;DHT22;74199;52.014;5.430;2024-03-07T03:07:49;20.80;40.40
72484;DHT22;74199;52.014;5.430;2024-03-07T03:10:26;20.80;40.40
72484;DHT22;74199;52.014;5.430;2024-03-07T03:12:56;20.80;40.40
72484;DHT22;74199;52.014;5.430;2024-03-07T03:15:28;20.80;40.30
72484;DHT22;74199;52.014;5.430;2024-03-07T03:17:57;20.80;40.30
72484;DHT22;74199;52.014;5.430;2024-03-07T03:20:28;20.80;40.30
72484;DHT22;74199;52.014;5.430;2024-03-07T03:23:02;20.80;40.30
72484;DHT22;74199;52.014;5.430;2024-03-07T03:25:45;20.80;40.30
72484;DHT22;74199;52.014;5.430;2024-03-07T03:28:15;20.80;40.20
72484;DHT22;74199;52.014;5.430;2024-03-07T03:30:43;20.80;40.20
72484;DHT22;74199;52.014;5.430;2024-03-07T03:33:10;20.80;40.30
72484;DHT22;74199;52.014;5.430;2024-03-07T03:35:38;20.80;40.20
72484;DHT22;74199;52.014;5.430;2024-03-07T03:38:06;20.90;40.10
72484;DHT22;74199;52.014;5.430;2024-03-07T03:40:33;20.90;40.10
72484;DHT22;74199;52.014;5.430;2024-03-07T03:43:01;20.90;40.10
72484;DHT22;74199;52.014;5.430;2024-03-07T03:45:28;20.90;40.10
72484;DHT22;74199;52.014;5.430;2024-03-07T03:47:55;20.90;40.00
72484;DHT22;74199;52.014;5.430;2024-03-07T03:50:22;20.90;39.90
72484;DHT22;74199;52.014;5.430;2024-03-07T03:52:52;20.90;39.90
72484;DHT22;74199;52.014;5.430;2024-03-07T03:55:20;21.00;39.90
72484;DHT22;74199;52.014;5.430;2024-03-07T03:57:48;21.00;39.90
72484;DHT22;74199;52.014;5.430;2024-03-07T04:00:16;21.00;39.80
72484;DHT22;74199;52.014;5.430;2024-03-07T04:02:46;21.00;39.80
72484;DHT22;74199;52.014;5.430;2024-03-07T04:05:17;21.00;39.70
72484;DHT22;74199;52.014;5.430;2024-03-07T04:07:45;21.00;39.70
72484;DHT22;74199;52.014;5.430;2024-03-07T04:10:14;21.00;39.80
72484;DHT22;74199;52.014;5.430;2024-03-07T04:12:41;21.00;39.70
72484;DHT22;74199;52.014;5.430;2024-03-07T04:15:11;21.00;39.70
72484;DHT22;74199;52.014;5.430;2024-03-07T04:17:38;20.90;39.70
72484;DHT22;74199;52.014;5.430;2024-03-07T04:20:06;21.00;39.60
72484;DHT22;74199;52.014;5.430;2024-03-07T04:22:34;21.00;39.60
72484;DHT22;74199;52.014;5.430;2024-03-07T04:25:02;20.90;39.60
72484;DHT22;74199;52.014;5.430;2024-03-07T04:27:29;20.90;39.60
72484;DHT22;74199;52.014;5.430;2024-03-07T04:29:57;20.90;39.60
72484;DHT22;74199;52.014;5.430;2024-03-07T04:32:24;20.90;39.50
72484;DHT22;74199;52.014;5.430;2024-03-07T04:34:51;20.90;39.50
72484;DHT22;74199;52.014;5.430;2024-03-07T04:37:18;20.90;39.60
72484;DHT22;74199;52.014;5.430;2024-03-07T04:39:45;20.90;39.40
72484;DHT22;74199;52.014;5.430;2024-03-07T04:42:12;20.90;39.50
72484;DHT22;74199;52.014;5.430;2024-03-07T04:44:40;20.90;39.50
72484;DHT22;74199;52.014;5.430;2024-03-07T04:47:07;20.90;39.50
72484;DHT22;74199;52.014;5.430;2024-03-07T04:49:34;20.90;39.50
72484;DHT22;74199;52.014;5.430;2024-03-07T04:52:02;20.90;39.40
72484;DHT22;74199;52.014;5.430;2024-03-07T04:54:31;20.90;39.50
72484;DHT22;74199;52.014;5.430;2024-03-07T04:57:01;20.90;39.40
72484;DHT22;74199;52.014;5.430;2024-03-07T04:59:28;20.90;39.40
72484;DHT22;74199;52.014;5.430;2024-03-07T05:01:56;20.90;39.40
72484;DHT22;74199;52.014;5.430;2024-03-07T05:04:24;20.90;39.30
72484;DHT22;74199;52.014;5.430;2024-03-07T05:06:51;20.90;39.40
72484;DHT22;74199;52.014;5.430;2024-03-07T05:09:18;21.00;39.40
72484;DHT22;74199;52.014;5.430;2024-03-07T05:11:53;21.00;39.30
72484;DHT22;74199;52.014;5.430;2024-03-07T05:14:21;21.00;39.30
72484;DHT22;74199;52.014;5.430;2024-03-07T05:16:49;21.00;39.30
72484;DHT22;74199;52.014;5.430;2024-03-07T05:19:35;21.00;39.30
72484;DHT22;74199;52.014;5.430;2024-03-07T05:22:02;21.10;39.20
72484;DHT22;74199;52.014;5.430;2024-03-07T05:24:33;21.10;39.20
72484;DHT22;74199;52.014;5.430;2024-03-07T05:27:01;21.10;39.30
72484;DHT22;74199;52.014;5.430;2024-03-07T05:29:28;21.10;39.20
72484;DHT22;74199;52.014;5.430;2024-03-07T05:31:55;21.10;39.20
72484;DHT22;74199;52.014;5.430;2024-03-07T05:34:22;21.10;39.10
72484;DHT22;74199;52.014;5.430;2024-03-07T05:36:50;21.10;39.10
72484;DHT22;74199;52.014;5.430;2024-03-07T05:39:18;21.10;39.00
72484;DHT22;74199;52.014;5.430;2024-03-07T05:41:45;21.10;39.00
72484;DHT22;74199;52.014;5.430;2024-03-07T05:44:13;21.10;39.00
72484;DHT22;74199;52.014;5.430;2024-03-07T05:46:41;21.10;38.90
72484;DHT22;74199;52.014;5.430;2024-03-07T05:49:13;21.10;38.90
72484;DHT22;74199;52.014;5.430;2024-03-07T05:51:41;21.10;38.90
72484;DHT22;74199;52.014;5.430;2024-03-07T05:54:12;21.10;38.80
72484;DHT22;74199;52.014;5.430;2024-03-07T05:56:40;21.10;38.80
72484;DHT22;74199;52.014;5.430;2024-03-07T05:59:08;21.10;38.80
72484;DHT22;74199;52.014;5.430;2024-03-07T06:01:39;21.10;38.80
72484;DHT22;74199;52.014;5.430;2024-03-07T06:04:06;21.10;38.70
72484;DHT22;74199;52.014;5.430;2024-03-07T06:06:35;21.10;38.70
72484;DHT22;74199;52.014;5.430;2024-03-07T06:09:08;21.20;38.70
72484;DHT22;74199;52.014;5.430;2024-03-07T06:11:39;21.20;38.70
72484;DHT22;74199;52.014;5.430;2024-03-07T06:14:09;21.20;38.60
72484;DHT22;74199;52.014;5.430;2024-03-07T06:16:37;21.20;38.60
72484;DHT22;74199;52.014;5.430;2024-03-07T06:19:06;21.20;38.60
72484;DHT22;74199;52.014;5.430;2024-03-07T06:21:39;21.20;38.60
72484;DHT22;74199;52.014;5.430;2024-03-07T06:24:06;21.20;38.60
72484;DHT22;74199;52.014;5.430;2024-03-07T06:26:38;21.20;38.60
72484;DHT22;74199;52.014;5.430;2024-03-07T06:29:08;21.20;38.50
72484;DHT22;74199;52.014;5.430;2024-03-07T06:31:38;21.10;38.60
72484;DHT22;74199;52.014;5.430;2024-03-07T06:34:05;21.20;38.60
72484;DHT22;74199;52.014;5.430;2024-03-07T06:36:33;21.20;38.50
72484;DHT22;74199;52.014;5.430;2024-03-07T06:39:00;21.20;38.60
72484;DHT22;74199;52.014;5.430;2024-03-07T06:41:28;21.20;38.60
72484;DHT22;74199;52.014;5.430;2024-03-07T06:43:55;21.10;38.60
72484;DHT22;74199;52.014;5.430;2024-03-07T06:46:22;21.10;38.60
72484;DHT22;74199;52.014;5.430;2024-03-07T06:48:50;21.10;38.60
72484;DHT22;74199;52.014;5.430;2024-03-07T06:51:18;21.10;38.60
72484;DHT22;74199;52.014;5.430;2024-03-07T06:53:45;21.20;38.60
72484;DHT22;74199;52.014;5.430;2024-03-07T06:56:15;21.20;38.60
72484;DHT22;74199;52.014;5.430;2024-03-07T06:58:43;21.20;38.70
72484;DHT22;74199;52.014;5.430;2024-03-07T07:01:13;21.20;38.70
72484;DHT22;74199;52.014;5.430;2024-03-07T07:03:43;21.20;38.80
72484;DHT22;74199;52.014;5.430;2024-03-07T07:06:11;21.20;38.80
72484;DHT22;74199;52.014;5.430;2024-03-07T07:08:38;21.10;38.90
72484;DHT22;74199;52.014;5.430;2024-03-07T07:11:05;21.00;38.90
72484;DHT22;74199;52.014;5.430;2024-03-07T07:13:33;21.00;39.20
72484;DHT22;74199;52.014;5.430;2024-03-07T07:16:00;21.00;39.30
72484;DHT22;74199;52.014;5.430;2024-03-07T07:18:28;21.00;39.30
72484;DHT22;74199;52.014;5.430;2024-03-07T07:20:55;21.00;39.40
72484;DHT22;74199;52.014;5.430;2024-03-07T07:23:23;21.00;39.40
72484;DHT22;74199;52.014;5.430;2024-03-07T07:25:50;21.00;39.30
72484;DHT22;74199;52.014;5.430;2024-03-07T07:28:17;21.00;39.20
72484;DHT22;74199;52.014;5.430;2024-03-07T07:30:44;20.90;39.00
72484;DHT22;74199;52.014;5.430;2024-03-07T07:33:12;20.80;39.00
72484;DHT22;74199;52.014;5.430;2024-03-07T07:35:40;20.70;38.80
72484;DHT22;74199;52.014;5.430;2024-03-07T07:38:08;20.70;38.80
72484;DHT22;74199;52.014;5.430;2024-03-07T07:40:38;20.60;38.90
72484;DHT22;74199;52.014;5.430;2024-03-07T07:43:05;20.50;38.90
72484;DHT22;74199;52.014;5.430;2024-03-07T07:45:33;20.50;38.80
72484;DHT22;74199;52.014;5.430;2024-03-07T07:48:03;20.40;38.90
72484;DHT22;74199;52.014;5.430;2024-03-07T07:50:31;20.40;38.80
72484;DHT22;74199;52.014;5.430;2024-03-07T07:53:01;20.30;38.90
72484;DHT22;74199;52.014;5.430;2024-03-07T07:55:31;20.30;39.10
72484;DHT22;74199;52.014;5.430;2024-03-07T07:57:59;20.30;39.50
72484;DHT22;74199;52.014;5.430;2024-03-07T08:00:28;20.30;39.70
72484;DHT22;74199;52.014;5.430;2024-03-07T08:03:04;20.30;39.80
72484;DHT22;74199;52.014;5.430;2024-03-07T08:05:34;20.30;40.00
72484;DHT22;74199;52.014;5.430;2024-03-07T08:08:04;20.30;40.00
72484;DHT22;74199;52.014;5.430;2024-03-07T08:10:35;20.30;40.10
72484;DHT22;74199;52.014;5.430;2024-03-07T08:13:03;20.30;40.20
72484;DHT22;74199;52.014;5.430;2024-03-07T08:15:32;20.30;40.20
72484;DHT22;74199;52.014;5.430;2024-03-07T08:18:00;20.30;40.40
72484;DHT22;74199;52.014;5.430;2024-03-07T08:20:28;20.30;40.40
72484;DHT22;74199;52.014;5.430;2024-03-07T08:22:56;20.30;40.40
72484;DHT22;74199;52.014;5.430;2024-03-07T08:25:25;20.30;40.50
72484;DHT22;74199;52.014;5.430;2024-03-07T08:27:56;20.30;40.40
72484;DHT22;74199;52.014;5.430;2024-03-07T08:30:25;20.30;40.50
72484;DHT22;74199;52.014;5.430;2024-03-07T08:32:55;20.30;40.60
72484;DHT22;74199;52.014;5.430;2024-03-07T08:35:23;20.30;40.70
72484;DHT22;74199;52.014;5.430;2024-03-07T08:37:52;20.30;40.80
72484;DHT22;74199;52.014;5.430;2024-03-07T08:40:26;20.30;40.70
72484;DHT22;74199;52.014;5.430;2024-03-07T08:42:59;20.20;40.70
72484;DHT22;74199;52.014;5.430;2024-03-07T08:45:28;20.20;40.70
72484;DHT22;74199;52.014;5.430;2024-03-07T08:47:56;20.20;40.90
72484;DHT22;74199;52.014;5.430;2024-03-07T08:50:26;20.20;41.00
72484;DHT22;74199;52.014;5.430;2024-03-07T08:52:54;20.20;40.90
72484;DHT22;74199;52.014;5.430;2024-03-07T08:55:25;20.10;41.00
72484;DHT22;74199;52.014;5.430;2024-03-07T08:57:53;20.10;41.00
72484;DHT22;74199;52.014;5.430;2024-03-07T09:00:20;20.10;40.80
72484;DHT22;74199;52.014;5.430;2024-03-07T09:02:57;20.10;40.70
72484;DHT22;74199;52.014;5.430;2024-03-07T09:05:29;20.10;40.70
72484;DHT22;74199;52.014;5.430;2024-03-07T09:08:01;20.10;40.60
72484;DHT22;74199;52.014;5.430;2024-03-07T09:10:28;20.10;40.60
72484;DHT22;74199;52.014;5.430;2024-03-07T09:12:58;20.00;40.50
72484;DHT22;74199;52.014;5.430;2024-03-07T09:15:26;20.00;40.50
72484;DHT22;74199;52.014;5.430;2024-03-07T09:17:54;20.00;40.50
72484;DHT22;74199;52.014;5.430;2024-03-07T09:20:21;20.00;40.50
72484;DHT22;74199;52.014;5.430;2024-03-07T09:22:48;20.00;40.60
72484;DHT22;74199;52.014;5.430;2024-03-07T09:25:17;20.00;40.50
72484;DHT22;74199;52.014;5.430;2024-03-07T09:27:46;20.00;40.40
72484;DHT22;74199;52.014;5.430;2024-03-07T09:30:13;20.00;40.40
72484;DHT22;74199;52.014;5.430;2024-03-07T09:32:46;19.90;40.40
72484;DHT22;74199;52.014;5.430;2024-03-07T09:35:13;20.00;40.60
72484;DHT22;74199;52.014;5.430;2024-03-07T09:37:42;20.00;40.60
72484;DHT22;74199;52.014;5.430;2024-03-07T09:40:11;20.00;40.60
72484;DHT22;74199;52.014;5.430;2024-03-07T09:42:43;20.00;40.70
72484;DHT22;74199;52.014;5.430;2024-03-07T09:45:15;20.00;40.80
72484;DHT22;74199;52.014;5.430;2024-03-07T09:47:49;20.00;40.80
72484;DHT22;74199;52.014;5.430;2024-03-07T09:50:20;19.90;40.70
72484;DHT22;74199;52.014;5.430;2024-03-07T09:52:54;19.90;40.70
72484;DHT22;74199;52.014;5.430;2024-03-07T09:55:22;19.90;40.70
72484;DHT22;74199;52.014;5.430;2024-03-07T09:57:53;19.90;40.70
72484;DHT22;74199;52.014;5.430;2024-03-07T10:00:23;19.90;40.80
72484;DHT22;74199;52.014;5.430;2024-03-07T10:03:25;19.90;40.80
72484;DHT22;74199;52.014;5.430;2024-03-07T10:05:55;19.90;40.80
72484;DHT22;74199;52.014;5.430;2024-03-07T10:08:22;19.90;40.80
72484;DHT22;74199;52.014;5.430;2024-03-07T10:10:51;19.90;40.70
72484;DHT22;74199;52.014;5.430;2024-03-07T10:13:19;19.90;40.90
72484;DHT22;74199;52.014;5.430;2024-03-07T10:15:46;19.90;40.80
72484;DHT22;74199;52.014;5.430;2024-03-07T10:18:15;19.80;40.80
72484;DHT22;74199;52.014;5.430;2024-03-07T10:20:42;19.90;40.80
72484;DHT22;74199;52.014;5.430;2024-03-07T10:23:11;19.90;40.90
72484;DHT22;74199;52.014;5.430;2024-03-07T10:25:40;19.90;40.80
72484;DHT22;74199;52.014;5.430;2024-03-07T10:28:09;19.90;40.70
72484;DHT22;74199;52.014;5.430;2024-03-07T10:30:44;19.90;40.60
72484;DHT22;74199;52.014;5.430;2024-03-07T10:33:12;19.90;40.50
72484;DHT22;74199;52.014;5.430;2024-03-07T10:35:39;19.90;40.50
72484;DHT22;74199;52.014;5.430;2024-03-07T10:38:07;19.90;40.60
72484;DHT22;74199;52.014;5.430;2024-03-07T10:40:35;19.80;40.60
72484;DHT22;74199;52.014;5.430;2024-03-07T10:43:09;19.80;40.60
72484;DHT22;74199;52.014;5.430;2024-03-07T10:45:57;19.80;40.60
72484;DHT22;74199;52.014;5.430;2024-03-07T10:48:29;19.80;40.50
72484;DHT22;74199;52.014;5.430;2024-03-07T10:51:18;19.80;40.40
72484;DHT22;74199;52.014;5.430;2024-03-07T10:54:13;19.80;40.80
72484;DHT22;74199;52.014;5.430;2024-03-07T10:59:49;19.90;41.00
72484;DHT22;74199;52.014;5.430;2024-03-07T11:02:43;19.90;41.10
72484;DHT22;74199;52.014;5.430;2024-03-07T11:05:13;19.90;41.20
72484;DHT22;74199;52.014;5.430;2024-03-07T11:07:43;19.90;41.30
72484;DHT22;74199;52.014;5.430;2024-03-07T11:10:11;20.00;41.30
72484;DHT22;74199;52.014;5.430;2024-03-07T11:12:40;20.00;41.20
72484;DHT22;74199;52.014;5.430;2024-03-07T11:15:09;20.00;41.00
72484;DHT22;74199;52.014;5.430;2024-03-07T11:17:43;20.00;40.90
72484;DHT22;74199;52.014;5.430;2024-03-07T11:20:24;20.00;40.80
72484;DHT22;74199;52.014;5.430;2024-03-07T11:22:52;20.00;40.80
72484;DHT22;74199;52.014;5.430;2024-03-07T11:25:23;20.00;40.70
72484;DHT22;74199;52.014;5.430;2024-03-07T11:27:56;19.90;40.70
72484;DHT22;74199;52.014;5.430;2024-03-07T11:30:24;19.90;40.70
72484;DHT22;74199;52.014;5.430;2024-03-07T11:32:53;19.90;40.70
72484;DHT22;74199;52.014;5.430;2024-03-07T11:35:47;19.90;40.70
72484;DHT22;74199;52.014;5.430;2024-03-07T11:38:08;19.90;40.60
72484;DHT22;74199;52.014;5.430;2024-03-07T11:43:04;19.90;40.60
72484;DHT22;74199;52.014;5.430;2024-03-07T11:45:32;19.90;40.60
72484;DHT22;74199;52.014;5.430;2024-03-07T11:48:19;20.00;40.60
72484;DHT22;74199;52.014;5.430;2024-03-07T11:50:48;19.90;40.60
72484;DHT22;74199;52.014;5.430;2024-03-07T11:53:16;20.00;40.70
72484;DHT22;74199;52.014;5.430;2024-03-07T11:55:43;20.00;40.70
72484;DHT22;74199;52.014;5.430;2024-03-07T11:58:12;20.00;40.80
72484;DHT22;74199;52.014;5.430;2024-03-07T12:00:41;20.00;40.80
72484;DHT22;74199;52.014;5.430;2024-03-07T12:03:15;20.00;40.80
72484;DHT22;74199;52.014;5.430;2024-03-07T12:05:45;20.00;40.70
72484;DHT22;74199;52.014;5.430;2024-03-07T12:08:14;20.00;40.70
72484;DHT22;74199;52.014;5.430;2024-03-07T12:10:42;20.00;40.70
72484;DHT22;74199;52.014;5.430;2024-03-07T12:13:15;20.00;40.70
72484;DHT22;74199;52.014;5.430;2024-03-07T12:15:43;20.00;40.60
72484;DHT22;74199;52.014;5.430;2024-03-07T12:18:10;20.00;40.60
72484;DHT22;74199;52.014;5.430;2024-03-07T12:20:41;20.00;40.60
72484;DHT22;74199;52.014;5.430;2024-03-07T12:23:13;20.00;40.60
72484;DHT22;74199;52.014;5.430;2024-03-07T12:25:46;20.00;40.40
72484;DHT22;74199;52.014;5.430;2024-03-07T12:28:14;20.00;40.40
72484;DHT22;74199;52.014;5.430;2024-03-07T12:33:17;20.00;40.40
72484;DHT22;74199;52.014;5.430;2024-03-07T12:35:52;20.00;40.30
72484;DHT22;74199;52.014;5.430;2024-03-07T12:38:19;20.00;40.40
72484;DHT22;74199;52.014;5.430;2024-03-07T12:41:08;20.00;40.30
72484;DHT22;74199;52.014;5.430;2024-03-07T12:43:40;20.00;40.40
72484;DHT22;74199;52.014;5.430;2024-03-07T12:46:12;20.00;40.40
72484;DHT22;74199;52.014;5.430;2024-03-07T12:48:40;20.00;40.40
72484;DHT22;74199;52.014;5.430;2024-03-07T12:51:09;20.10;40.50
72484;DHT22;74199;52.014;5.430;2024-03-07T12:53:37;20.10;40.60
72484;DHT22;74199;52.014;5.430;2024-03-07T12:56:04;20.10;40.50
72484;DHT22;74199;52.014;5.430;2024-03-07T12:58:31;20.10;40.60
72484;DHT22;74199;52.014;5.430;2024-03-07T13:00:59;20.10;40.70
72484;DHT22;74199;52.014;5.430;2024-03-07T13:03:27;20.10;40.80
72484;DHT22;74199;52.014;5.430;2024-03-07T13:05:57;20.20;40.70
72484;DHT22;74199;52.014;5.430;2024-03-07T13:08:28;20.20;40.80
72484;DHT22;74199;52.014;5.430;2024-03-07T13:10:57;20.20;40.80
72484;DHT22;74199;52.014;5.430;2024-03-07T13:13:26;20.20;40.80
72484;DHT22;74199;52.014;5.430;2024-03-07T13:15:53;20.20;41.10
72484;DHT22;74199;52.014;5.430;2024-03-07T13:18:22;20.30;41.20
72484;DHT22;74199;52.014;5.430;2024-03-07T13:20:50;20.30;41.50
72484;DHT22;74199;52.014;5.430;2024-03-07T13:23:17;20.30;41.70
72484;DHT22;74199;52.014;5.430;2024-03-07T13:25:44;20.40;41.90
72484;DHT22;74199;52.014;5.430;2024-03-07T13:28:12;20.40;42.10
72484;DHT22;74199;52.014;5.430;2024-03-07T13:30:44;20.50;42.10
72484;DHT22;74199;52.014;5.430;2024-03-07T13:33:11;20.50;42.40
72484;DHT22;74199;52.014;5.430;2024-03-07T13:35:39;20.50;42.40
72484;DHT22;74199;52.014;5.430;2024-03-07T13:38:07;20.60;42.60
72484;DHT22;74199;52.014;5.430;2024-03-07T13:40:35;20.60;42.60
72484;DHT22;74199;52.014;5.430;2024-03-07T13:43:06;20.60;42.70
72484;DHT22;74199;52.014;5.430;2024-03-07T13:45:34;20.70;42.70
72484;DHT22;74199;52.014;5.430;2024-03-07T13:48:06;20.70;42.70
72484;DHT22;74199;52.014;5.430;2024-03-07T13:50:34;20.70;42.60
72484;DHT22;74199;52.014;5.430;2024-03-07T13:53:22;20.70;42.50
72484;DHT22;74199;52.014;5.430;2024-03-07T14:07:28;20.80;42.10
72484;DHT22;74199;52.014;5.430;2024-03-07T14:16:12;20.70;41.50
72484;DHT22;74199;52.014;5.430;2024-03-07T14:32:50;20.70;41.00
72484;DHT22;74199;52.014;5.430;2024-03-07T14:35:32;20.70;41.00
72484;DHT22;74199;52.014;5.430;2024-03-07T14:38:23;20.60;40.90
72484;DHT22;74199;52.014;5.430;2024-03-07T14:40:52;20.60;41.10
72484;DHT22;74199;52.014;5.430;2024-03-07T14:43:20;20.60;41.00
72484;DHT22;74199;52.014;5.430;2024-03-07T14:45:47;20.60;41.00
72484;DHT22;74199;52.014;5.430;2024-03-07T14:48:17;20.60;40.90
72484;DHT22;74199;52.014;5.430;2024-03-07T14:50:46;20.50;40.90
72484;DHT22;74199;52.014;5.430;2024-03-07T14:53:15;20.50;40.80
72484;DHT22;74199;52.014;5.430;2024-03-07T14:55:45;20.50;40.80
72484;DHT22;74199;52.014;5.430;2024-03-07T14:58:12;20.50;40.70
72484;DHT22;74199;52.014;5.430;2024-03-07T15:00:41;20.50;40.60
72484;DHT22;74199;52.014;5.430;2024-03-07T15:03:22;20.50;40.60
72484;DHT22;74199;52.014;5.430;2024-03-07T15:05:50;20.50;40.60
72484;DHT22;74199;52.014;5.430;2024-03-07T15:08:18;20.50;40.60
72484;DHT22;74199;52.014;5.430;2024-03-07T15:10:59;20.50;40.80
72484;DHT22;74199;52.014;5.430;2024-03-07T15:13:30;20.50;40.80
72484;DHT22;74199;52.014;5.430;2024-03-07T15:15:57;20.50;40.90
72484;DHT22;74199;52.014;5.430;2024-03-07T15:18:25;20.60;40.90
72484;DHT22;74199;52.014;5.430;2024-03-07T15:20:54;20.60;40.90
72484;DHT22;74199;52.014;5.430;2024-03-07T15:23:21;20.60;40.90
72484;DHT22;74199;52.014;5.430;2024-03-07T15:25:49;20.60;40.90
72484;DHT22;74199;52.014;5.430;2024-03-07T15:28:16;20.60;40.80
72484;DHT22;74199;52.014;5.430;2024-03-07T15:30:43;20.60;40.80
72484;DHT22;74199;52.014;5.430;2024-03-07T15:33:10;20.60;40.80
72484;DHT22;74199;52.014;5.430;2024-03-07T15:35:37;20.60;40.70
72484;DHT22;74199;52.014;5.430;2024-03-07T15:38:04;20.60;40.70
72484;DHT22;74199;52.014;5.430;2024-03-07T15:40:32;20.60;40.70
72484;DHT22;74199;52.014;5.430;2024-03-07T15:43:01;20.60;40.70
72484;DHT22;74199;52.014;5.430;2024-03-07T15:45:28;20.50;40.80
72484;DHT22;74199;52.014;5.430;2024-03-07T15:47:58;20.50;40.70
72484;DHT22;74199;52.014;5.430;2024-03-07T15:50:26;20.50;40.80
72484;DHT22;74199;52.014;5.430;2024-03-07T15:52:57;20.50;40.90
72484;DHT22;74199;52.014;5.430;2024-03-07T15:55:28;20.50;40.90
72484;DHT22;74199;52.014;5.430;2024-03-07T15:57:56;20.40;40.80
72484;DHT22;74199;52.014;5.430;2024-03-07T16:00:26;20.40;40.90
72484;DHT22;74199;52.014;5.430;2024-03-07T16:03:00;20.40;40.80
72484;DHT22;74199;52.014;5.430;2024-03-07T16:05:29;20.40;40.90
72484;DHT22;74199;52.014;5.430;2024-03-07T16:07:59;20.40;40.90
72484;DHT22;74199;52.014;5.430;2024-03-07T16:10:28;20.40;40.90
72484;DHT22;74199;52.014;5.430;2024-03-07T16:13:00;20.40;40.80
72484;DHT22;74199;52.014;5.430;2024-03-07T16:15:28;20.30;40.90
72484;DHT22;74199;52.014;5.430;2024-03-07T16:18:07;20.30;41.00
72484;DHT22;74199;52.014;5.430;2024-03-07T16:20:38;20.30;41.20
72484;DHT22;74199;52.014;5.430;2024-03-07T16:23:05;20.30;41.20